sensor_id;sensor_type;location;lat;lon;timestamp;P1;durP1;ratioP1;P2;durP2;ratioP2
13321;SDS011;6730;46.248;6.930;2022-11-23T00:01:59;0.80;;;0.80;;
13321;SDS011;6730;46.248;6.930;2022-11-23T00:04:25;0.67;;;0.20;;
13321;SDS011;6730;46.248;6.930;2022-11-23T00:06:51;1.13;;;0.40;;
13321;SDS011;6730;46.248;6.930;2022-11-23T00:09:16;3.13;;;0.40;;
13321;SDS011;6730;46.248;6.930;2022-11-23T00:11:42;0.40;;;0.40;;
13321;SDS011;6730;46.248;6.930;2022-11-23T00:14:08;0.20;;;0.20;;
13321;SDS011;6730;46.248;6.930;2022-11-23T00:16:33;0.63;;;0.63;;
13321;SDS011;6730;46.248;6.930;2022-11-23T00:18:59;0.40;;;0.30;;
13321;SDS011;6730;46.248;6.930;2022-11-23T00:21:27;0.47;;;0.40;;
13321;SDS011;6730;46.248;6.930;2022-11-23T00:23:54;0.10;;;0.10;;
13321;SDS011;6730;46.248;6.930;2022-11-23T00:26:20;0.47;;;0.43;;
13321;SDS011;6730;46.248;6.930;2022-11-23T00:28:46;1.00;;;0.90;;
13321;SDS011;6730;46.248;6.930;2022-11-23T00:31:13;0.60;;;0.60;;
13321;SDS011;6730;46.248;6.930;2022-11-23T00:33:40;0.40;;;0.40;;
13321;SDS011;6730;46.248;6.930;2022-11-23T00:36:13;0.40;;;0.40;;
13321;SDS011;6730;46.248;6.930;2022-11-23T00:38:40;1.30;;;1.10;;
13321;SDS011;6730;46.248;6.930;2022-11-23T00:41:08;0.40;;;0.40;;
13321;SDS011;6730;46.248;6.930;2022-11-23T00:43:41;1.80;;;0.50;;
13321;SDS011;6730;46.248;6.930;2022-11-23T00:46:09;0.30;;;0.30;;
13321;SDS011;6730;46.248;6.930;2022-11-23T00:48:46;0.23;;;0.23;;
13321;SDS011;6730;46.248;6.930;2022-11-23T00:51:13;0.30;;;0.30;;
13321;SDS011;6730;46.248;6.930;2022-11-23T00:53:41;0.97;;;0.90;;
13321;SDS011;6730;46.248;6.930;2022-11-23T00:56:08;1.00;;;0.90;;
13321;SDS011;6730;46.248;6.930;2022-11-23T00:58:34;1.00;;;0.90;;
13321;SDS011;6730;46.248;6.930;2022-11-23T01:01:04;2.83;;;0.90;;
13321;SDS011;6730;46.248;6.930;2022-11-23T01:03:41;1.13;;;0.70;;
13321;SDS011;6730;46.248;6.930;2022-11-23T01:06:27;0.60;;;0.60;;
13321;SDS011;6730;46.248;6.930;2022-11-23T01:08:58;0.93;;;0.53;;
13321;SDS011;6730;46.248;6.930;2022-11-23T01:11:29;0.53;;;0.53;;
13321;SDS011;6730;46.248;6.930;2022-11-23T01:13:56;0.30;;;0.30;;
13321;SDS011;6730;46.248;6.930;2022-11-23T01:16:23;0.73;;;0.57;;
13321;SDS011;6730;46.248;6.930;2022-11-23T01:18:52;0.77;;;0.53;;
13321;SDS011;6730;46.248;6.930;2022-11-23T01:21:18;0.63;;;0.20;;
13321;SDS011;6730;46.248;6.930;2022-11-23T01:23:43;0.47;;;0.10;;
13321;SDS011;6730;46.248;6.930;2022-11-23T01:26:09;0.43;;;0.33;;
13321;SDS011;6730;46.248;6.930;2022-11-23T01:28:37;0.33;;;0.27;;
13321;SDS011;6730;46.248;6.930;2022-11-23T01:31:05;0.07;;;0.07;;
13321;SDS011;6730;46.248;6.930;2022-11-23T01:33:38;0.10;;;0.10;;
13321;SDS011;6730;46.248;6.930;2022-11-23T01:38:40;0.13;;;0.13;;
13321;SDS011;6730;46.248;6.930;2022-11-23T01:41:07;0.40;;;0.27;;
13321;SDS011;6730;46.248;6.930;2022-11-23T01:43:36;2.20;;;0.30;;
13321;SDS011;6730;46.248;6.930;2022-11-23T01:46:02;0.10;;;0.10;;
13321;SDS011;6730;46.248;6.930;2022-11-23T01:48:30;0.10;;;0.10;;
13321;SDS011;6730;46.248;6.930;2022-11-23T01:50:57;0.67;;;0.30;;
13321;SDS011;6730;46.248;6.930;2022-11-23T01:53:26;0.00;;;0.00;;
13321;SDS011;6730;46.248;6.930;2022-11-23T01:55:53;0.23;;;0.20;;
13321;SDS011;6730;46.248;6.930;2022-11-23T01:58:21;0.30;;;0.20;;
13321;SDS011;6730;46.248;6.930;2022-11-23T02:00:48;0.30;;;0.20;;
13321;SDS011;6730;46.248;6.930;2022-11-23T02:03:14;0.67;;;0.40;;
13321;SDS011;6730;46.248;6.930;2022-11-23T02:05:43;0.47;;;0.20;;
13321;SDS011;6730;46.248;6.930;2022-11-23T02:08:12;0.73;;;0.20;;
13321;SDS011;6730;46.248;6.930;2022-11-23T02:10:40;1.57;;;0.30;;
13321;SDS011;6730;46.248;6.930;2022-11-23T02:13:07;0.20;;;0.20;;
13321;SDS011;6730;46.248;6.930;2022-11-23T02:15:36;0.07;;;0.07;;
13321;SDS011;6730;46.248;6.930;2022-11-23T02:18:03;0.10;;;0.10;;
13321;SDS011;6730;46.248;6.930;2022-11-23T02:20:33;0.10;;;0.07;;
13321;SDS011;6730;46.248;6.930;2022-11-23T02:25:56;0.90;;;0.20;;
13321;SDS011;6730;46.248;6.930;2022-11-23T02:28:28;0.10;;;0.10;;
13321;SDS011;6730;46.248;6.930;2022-11-23T02:31:02;0.20;;;0.20;;
13321;SDS011;6730;46.248;6.930;2022-11-23T02:33:28;0.10;;;0.10;;
13321;SDS011;6730;46.248;6.930;2022-11-23T02:35:55;1.43;;;0.20;;
13321;SDS011;6730;46.248;6.930;2022-11-23T02:38:24;0.20;;;0.20;;
13321;SDS011;6730;46.248;6.930;2022-11-23T02:40:52;0.20;;;0.20;;
13321;SDS011;6730;46.248;6.930;2022-11-23T02:43:18;0.20;;;0.20;;
13321;SDS011;6730;46.248;6.930;2022-11-23T02:45:56;0.60;;;0.40;;
13321;SDS011;6730;46.248;6.930;2022-11-23T02:48:25;0.20;;;0.20;;
13321;SDS011;6730;46.248;6.930;2022-11-23T02:50:51;0.37;;;0.20;;
13321;SDS011;6730;46.248;6.930;2022-11-23T02:53:17;0.10;;;0.10;;
13321;SDS011;6730;46.248;6.930;2022-11-23T02:55:43;0.30;;;0.23;;
13321;SDS011;6730;46.248;6.930;2022-11-23T02:58:09;0.13;;;0.10;;
13321;SDS011;6730;46.248;6.930;2022-11-23T03:00:34;0.07;;;0.07;;
13321;SDS011;6730;46.248;6.930;2022-11-23T03:03:01;0.10;;;0.10;;
13321;SDS011;6730;46.248;6.930;2022-11-23T03:05:27;0.00;;;0.00;;
13321;SDS011;6730;46.248;6.930;2022-11-23T03:07:53;0.10;;;0.10;;
13321;SDS011;6730;46.248;6.930;2022-11-23T03:10:19;0.20;;;0.13;;
13321;SDS011;6730;46.248;6.930;2022-11-23T03:12:46;0.10;;;0.10;;
13321;SDS011;6730;46.248;6.930;2022-11-23T03:15:11;0.23;;;0.13;;
13321;SDS011;6730;46.248;6.930;2022-11-23T03:17:37;0.10;;;0.10;;
13321;SDS011;6730;46.248;6.930;2022-11-23T03:20:03;1.50;;;0.10;;
13321;SDS011;6730;46.248;6.930;2022-11-23T03:22:29;0.00;;;0.00;;
13321;SDS011;6730;46.248;6.930;2022-11-23T03:24:55;0.10;;;0.00;;
13321;SDS011;6730;46.248;6.930;2022-11-23T03:27:21;0.00;;;0.00;;
13321;SDS011;6730;46.248;6.930;2022-11-23T03:29:47;0.17;;;0.17;;
13321;SDS011;6730;46.248;6.930;2022-11-23T03:32:13;0.20;;;0.17;;
13321;SDS011;6730;46.248;6.930;2022-11-23T03:34:39;0.10;;;0.10;;
13321;SDS011;6730;46.248;6.930;2022-11-23T03:37:05;0.37;;;0.20;;
13321;SDS011;6730;46.248;6.930;2022-11-23T03:39:30;0.30;;;0.10;;
13321;SDS011;6730;46.248;6.930;2022-11-23T03:41:56;0.20;;;0.17;;
13321;SDS011;6730;46.248;6.930;2022-11-23T03:44:22;0.00;;;0.00;;
13321;SDS011;6730;46.248;6.930;2022-11-23T03:46:47;0.10;;;0.07;;
13321;SDS011;6730;46.248;6.930;2022-11-23T03:49:14;0.10;;;0.10;;
13321;SDS011;6730;46.248;6.930;2022-11-23T03:51:40;0.60;;;0.20;;
13321;SDS011;6730;46.248;6.930;2022-11-23T03:54:06;0.10;;;0.10;;
13321;SDS011;6730;46.248;6.930;2022-11-23T03:56:32;1.33;;;0.20;;
13321;SDS011;6730;46.248;6.930;2022-11-23T03:58:57;1.40;;;0.10;;
13321;SDS011;6730;46.248;6.930;2022-11-23T04:01:23;0.57;;;0.20;;
13321;SDS011;6730;46.248;6.930;2022-11-23T04:03:49;0.10;;;0.10;;
13321;SDS011;6730;46.248;6.930;2022-11-23T04:06:15;0.10;;;0.03;;
13321;SDS011;6730;46.248;6.930;2022-11-23T04:08:41;0.20;;;0.10;;
13321;SDS011;6730;46.248;6.930;2022-11-23T04:11:06;0.53;;;0.53;;
13321;SDS011;6730;46.248;6.930;2022-11-23T04:13:32;0.10;;;0.10;;
13321;SDS011;6730;46.248;6.930;2022-11-23T04:15:58;0.23;;;0.20;;
13321;SDS011;6730;46.248;6.930;2022-11-23T04:18:23;0.07;;;0.07;;
13321;SDS011;6730;46.248;6.930;2022-11-23T04:20:49;0.10;;;0.10;;
13321;SDS011;6730;46.248;6.930;2022-11-23T04:23:15;0.20;;;0.00;;
13321;SDS011;6730;46.248;6.930;2022-11-23T04:25:40;0.10;;;0.10;;
13321;SDS011;6730;46.248;6.930;2022-11-23T04:28:06;0.40;;;0.20;;
13321;SDS011;6730;46.248;6.930;2022-11-23T04:30:32;0.10;;;0.10;;
13321;SDS011;6730;46.248;6.930;2022-11-23T04:32:58;0.27;;;0.10;;
13321;SDS011;6730;46.248;6.930;2022-11-23T04:35:23;0.83;;;0.30;;
13321;SDS011;6730;46.248;6.930;2022-11-23T04:37:49;0.30;;;0.00;;
13321;SDS011;6730;46.248;6.930;2022-11-23T04:40:15;0.20;;;0.20;;
13321;SDS011;6730;46.248;6.930;2022-11-23T04:42:40;1.63;;;0.13;;
13321;SDS011;6730;46.248;6.930;2022-11-23T04:45:06;0.00;;;0.00;;
13321;SDS011;6730;46.248;6.930;2022-11-23T04:47:32;0.17;;;0.10;;
13321;SDS011;6730;46.248;6.930;2022-11-23T04:49:58;0.00;;;0.00;;
13321;SDS011;6730;46.248;6.930;2022-11-23T04:52:23;0.00;;;0.00;;
13321;SDS011;6730;46.248;6.930;2022-11-23T04:54:49;0.10;;;0.10;;
13321;SDS011;6730;46.248;6.930;2022-11-23T04:57:15;0.23;;;0.10;;
13321;SDS011;6730;46.248;6.930;2022-11-23T04:59:40;0.20;;;0.20;;
13321;SDS011;6730;46.248;6.930;2022-11-23T05:02:06;0.00;;;0.00;;
13321;SDS011;6730;46.248;6.930;2022-11-23T05:04:32;0.10;;;0.10;;
13321;SDS011;6730;46.248;6.930;2022-11-23T05:06:58;0.20;;;0.10;;
13321;SDS011;6730;46.248;6.930;2022-11-23T05:09:24;0.00;;;0.00;;
13321;SDS011;6730;46.248;6.930;2022-11-23T05:11:49;0.10;;;0.10;;
13321;SDS011;6730;46.248;6.930;2022-11-23T05:14:15;0.97;;;0.10;;
13321;SDS011;6730;46.248;6.930;2022-11-23T05:16:41;0.37;;;0.20;;
13321;SDS011;6730;46.248;6.930;2022-11-23T05:19:06;0.00;;;0.00;;
13321;SDS011;6730;46.248;6.930;2022-11-23T05:21:32;0.10;;;0.10;;
13321;SDS011;6730;46.248;6.930;2022-11-23T05:23:58;2.77;;;0.40;;
13321;SDS011;6730;46.248;6.930;2022-11-23T05:26:23;0.10;;;0.10;;
13321;SDS011;6730;46.248;6.930;2022-11-23T05:28:49;0.10;;;0.10;;
13321;SDS011;6730;46.248;6.930;2022-11-23T05:31:15;0.03;;;0.03;;
13321;SDS011;6730;46.248;6.930;2022-11-23T05:33:41;0.23;;;0.07;;
13321;SDS011;6730;46.248;6.930;2022-11-23T05:36:07;1.27;;;0.10;;
13321;SDS011;6730;46.248;6.930;2022-11-23T05:38:33;0.40;;;0.10;;
13321;SDS011;6730;46.248;6.930;2022-11-23T05:40:59;0.03;;;0.03;;
13321;SDS011;6730;46.248;6.930;2022-11-23T05:43:24;0.10;;;0.10;;
13321;SDS011;6730;46.248;6.930;2022-11-23T05:45:50;0.20;;;0.10;;
13321;SDS011;6730;46.248;6.930;2022-11-23T05:48:16;0.07;;;0.07;;
13321;SDS011;6730;46.248;6.930;2022-11-23T05:50:42;0.00;;;0.00;;
13321;SDS011;6730;46.248;6.930;2022-11-23T05:53:08;0.23;;;0.10;;
13321;SDS011;6730;46.248;6.930;2022-11-23T05:55:34;0.10;;;0.10;;
13321;SDS011;6730;46.248;6.930;2022-11-23T05:58:00;0.10;;;0.10;;
13321;SDS011;6730;46.248;6.930;2022-11-23T06:00:25;0.00;;;0.00;;
13321;SDS011;6730;46.248;6.930;2022-11-23T06:02:51;0.10;;;0.10;;
13321;SDS011;6730;46.248;6.930;2022-11-23T06:05:17;0.17;;;0.17;;
13321;SDS011;6730;46.248;6.930;2022-11-23T06:07:42;0.10;;;0.10;;
13321;SDS011;6730;46.248;6.930;2022-11-23T06:10:08;0.10;;;0.10;;
13321;SDS011;6730;46.248;6.930;2022-11-23T06:12:35;2.77;;;0.30;;
13321;SDS011;6730;46.248;6.930;2022-11-23T06:15:00;0.20;;;0.20;;
13321;SDS011;6730;46.248;6.930;2022-11-23T06:17:26;0.00;;;0.00;;
13321;SDS011;6730;46.248;6.930;2022-11-23T06:19:52;0.20;;;0.20;;
13321;SDS011;6730;46.248;6.930;2022-11-23T06:22:18;0.00;;;0.00;;
13321;SDS011;6730;46.248;6.930;2022-11-23T06:24:43;0.10;;;0.10;;
13321;SDS011;6730;46.248;6.930;2022-11-23T06:27:09;0.23;;;0.23;;
13321;SDS011;6730;46.248;6.930;2022-11-23T06:29:34;0.10;;;0.10;;
13321;SDS011;6730;46.248;6.930;2022-11-23T06:32:00;0.13;;;0.10;;
13321;SDS011;6730;46.248;6.930;2022-11-23T06:34:26;0.27;;;0.20;;
13321;SDS011;6730;46.248;6.930;2022-11-23T06:36:52;0.00;;;0.00;;
13321;SDS011;6730;46.248;6.930;2022-11-23T06:39:17;0.10;;;0.10;;
13321;SDS011;6730;46.248;6.930;2022-11-23T06:41:43;0.10;;;0.10;;
13321;SDS011;6730;46.248;6.930;2022-11-23T06:44:09;0.00;;;0.00;;
13321;SDS011;6730;46.248;6.930;2022-11-23T06:46:34;0.00;;;0.00;;
13321;SDS011;6730;46.248;6.930;2022-11-23T06:49:00;0.17;;;0.17;;
13321;SDS011;6730;46.248;6.930;2022-11-23T06:51:26;0.10;;;0.10;;
13321;SDS011;6730;46.248;6.930;2022-11-23T06:53:51;0.10;;;0.07;;
13321;SDS011;6730;46.248;6.930;2022-11-23T06:56:17;0.00;;;0.00;;
13321;SDS011;6730;46.248;6.930;2022-11-23T06:58:43;0.43;;;0.20;;
13321;SDS011;6730;46.248;6.930;2022-11-23T07:01:09;0.27;;;0.13;;
13321;SDS011;6730;46.248;6.930;2022-11-23T07:03:36;0.20;;;0.20;;
13321;SDS011;6730;46.248;6.930;2022-11-23T07:06:05;0.67;;;0.10;;
13321;SDS011;6730;46.248;6.930;2022-11-23T07:08:32;0.60;;;0.13;;
13321;SDS011;6730;46.248;6.930;2022-11-23T07:10:59;0.07;;;0.07;;
13321;SDS011;6730;46.248;6.930;2022-11-23T07:13:30;0.10;;;0.10;;
13321;SDS011;6730;46.248;6.930;2022-11-23T07:15:57;1.03;;;0.20;;
13321;SDS011;6730;46.248;6.930;2022-11-23T07:18:23;0.20;;;0.13;;
13321;SDS011;6730;46.248;6.930;2022-11-23T07:20:49;0.10;;;0.10;;
13321;SDS011;6730;46.248;6.930;2022-11-23T07:23:15;0.07;;;0.07;;
13321;SDS011;6730;46.248;6.930;2022-11-23T07:25:41;0.00;;;0.00;;
13321;SDS011;6730;46.248;6.930;2022-11-23T07:28:06;0.10;;;0.10;;
13321;SDS011;6730;46.248;6.930;2022-11-23T07:30:33;0.10;;;0.10;;
13321;SDS011;6730;46.248;6.930;2022-11-23T07:33:00;0.20;;;0.20;;
13321;SDS011;6730;46.248;6.930;2022-11-23T07:35:34;0.00;;;0.00;;
13321;SDS011;6730;46.248;6.930;2022-11-23T07:38:00;0.10;;;0.10;;
13321;SDS011;6730;46.248;6.930;2022-11-23T07:40:27;0.27;;;0.27;;
13321;SDS011;6730;46.248;6.930;2022-11-23T07:43:02;0.47;;;0.47;;
13321;SDS011;6730;46.248;6.930;2022-11-23T07:45:30;0.57;;;0.30;;
13321;SDS011;6730;46.248;6.930;2022-11-23T07:48:00;6.50;;;0.50;;
13321;SDS011;6730;46.248;6.930;2022-11-23T07:50:27;0.70;;;0.50;;
13321;SDS011;6730;46.248;6.930;2022-11-23T07:52:53;1.10;;;0.70;;
13321;SDS011;6730;46.248;6.930;2022-11-23T07:55:19;2.30;;;1.00;;
13321;SDS011;6730;46.248;6.930;2022-11-23T07:57:44;1.40;;;1.17;;
13321;SDS011;6730;46.248;6.930;2022-11-23T08:00:10;1.10;;;1.00;;
13321;SDS011;6730;46.248;6.930;2022-11-23T08:02:36;0.83;;;0.70;;
13321;SDS011;6730;46.248;6.930;2022-11-23T08:05:03;1.10;;;0.80;;
13321;SDS011;6730;46.248;6.930;2022-11-23T08:07:29;1.73;;;0.90;;
13321;SDS011;6730;46.248;6.930;2022-11-23T08:09:54;0.45;;;0.40;;
13321;SDS011;6730;46.248;6.930;2022-11-23T08:12:20;0.80;;;0.80;;
13321;SDS011;6730;46.248;6.930;2022-11-23T08:14:46;1.10;;;0.65;;
13321;SDS011;6730;46.248;6.930;2022-11-23T08:17:11;0.70;;;0.70;;
13321;SDS011;6730;46.248;6.930;2022-11-23T08:19:37;1.87;;;0.80;;
13321;SDS011;6730;46.248;6.930;2022-11-23T08:22:03;0.60;;;0.60;;
13321;SDS011;6730;46.248;6.930;2022-11-23T08:24:28;1.20;;;0.90;;
13321;SDS011;6730;46.248;6.930;2022-11-23T08:26:54;1.98;;;1.20;;
13321;SDS011;6730;46.248;6.930;2022-11-23T08:29:20;1.10;;;0.73;;
13321;SDS011;6730;46.248;6.930;2022-11-23T08:31:46;1.73;;;1.00;;
13321;SDS011;6730;46.248;6.930;2022-11-23T08:34:11;3.87;;;1.40;;
13321;SDS011;6730;46.248;6.930;2022-11-23T08:36:38;1.23;;;0.90;;
13321;SDS011;6730;46.248;6.930;2022-11-23T08:39:04;0.80;;;0.80;;
13321;SDS011;6730;46.248;6.930;2022-11-23T08:41:29;1.40;;;0.90;;
13321;SDS011;6730;46.248;6.930;2022-11-23T08:43:55;1.87;;;1.00;;
13321;SDS011;6730;46.248;6.930;2022-11-23T08:46:21;1.15;;;0.88;;
13321;SDS011;6730;46.248;6.930;2022-11-23T08:48:46;1.77;;;1.02;;
13321;SDS011;6730;46.248;6.930;2022-11-23T08:51:12;1.35;;;1.05;;
13321;SDS011;6730;46.248;6.930;2022-11-23T08:53:38;2.17;;;1.13;;
13321;SDS011;6730;46.248;6.930;2022-11-23T08:56:04;1.20;;;1.10;;
13321;SDS011;6730;46.248;6.930;2022-11-23T08:58:31;3.33;;;1.80;;
13321;SDS011;6730;46.248;6.930;2022-11-23T09:00:57;2.15;;;1.25;;
13321;SDS011;6730;46.248;6.930;2022-11-23T09:03:23;1.30;;;0.80;;
13321;SDS011;6730;46.248;6.930;2022-11-23T09:05:49;1.03;;;0.90;;
13321;SDS011;6730;46.248;6.930;2022-11-23T09:08:18;1.30;;;1.10;;
13321;SDS011;6730;46.248;6.930;2022-11-23T09:10:44;2.13;;;1.30;;
13321;SDS011;6730;46.248;6.930;2022-11-23T09:13:09;11.27;;;2.07;;
13321;SDS011;6730;46.248;6.930;2022-11-23T09:15:35;1.20;;;1.00;;
13321;SDS011;6730;46.248;6.930;2022-11-23T09:18:01;1.00;;;0.80;;
13321;SDS011;6730;46.248;6.930;2022-11-23T09:20:27;1.60;;;1.37;;
13321;SDS011;6730;46.248;6.930;2022-11-23T09:22:52;1.40;;;1.03;;
13321;SDS011;6730;46.248;6.930;2022-11-23T09:25:20;2.03;;;1.20;;
13321;SDS011;6730;46.248;6.930;2022-11-23T09:27:46;1.38;;;1.02;;
13321;SDS011;6730;46.248;6.930;2022-11-23T09:30:12;1.10;;;1.00;;
13321;SDS011;6730;46.248;6.930;2022-11-23T09:32:39;2.08;;;1.00;;
13321;SDS011;6730;46.248;6.930;2022-11-23T09:35:05;1.33;;;1.10;;
13321;SDS011;6730;46.248;6.930;2022-11-23T09:37:31;1.10;;;1.00;;
13321;SDS011;6730;46.248;6.930;2022-11-23T09:39:57;1.35;;;1.23;;
13321;SDS011;6730;46.248;6.930;2022-11-23T09:50:58;2.05;;;1.00;;
13321;SDS011;6730;46.248;6.930;2022-11-23T09:53:34;1.08;;;0.93;;
13321;SDS011;6730;46.248;6.930;2022-11-23T09:56:12;1.60;;;0.80;;
13321;SDS011;6730;46.248;6.930;2022-11-23T09:58:54;1.43;;;1.03;;
13321;SDS011;6730;46.248;6.930;2022-11-23T10:01:22;1.20;;;1.07;;
13321;SDS011;6730;46.248;6.930;2022-11-23T10:03:51;1.42;;;1.13;;
13321;SDS011;6730;46.248;6.930;2022-11-23T10:08:54;2.80;;;1.20;;
13321;SDS011;6730;46.248;6.930;2022-11-23T10:11:52;1.23;;;0.90;;
13321;SDS011;6730;46.248;6.930;2022-11-23T10:19:57;4.25;;;1.83;;
13321;SDS011;6730;46.248;6.930;2022-11-23T10:22:59;1.15;;;0.95;;
13321;SDS011;6730;46.248;6.930;2022-11-23T10:25:31;1.02;;;0.88;;
13321;SDS011;6730;46.248;6.930;2022-11-23T10:28:05;0.85;;;0.80;;
13321;SDS011;6730;46.248;6.930;2022-11-23T10:30:39;2.20;;;0.88;;
13321;SDS011;6730;46.248;6.930;2022-11-23T10:33:20;3.90;;;0.98;;
13321;SDS011;6730;46.248;6.930;2022-11-23T10:36:09;1.45;;;0.98;;
13321;SDS011;6730;46.248;6.930;2022-11-23T10:38:37;1.90;;;1.10;;
13321;SDS011;6730;46.248;6.930;2022-11-23T10:43:36;1.75;;;1.50;;
13321;SDS011;6730;46.248;6.930;2022-11-23T10:48:48;2.27;;;1.53;;
13321;SDS011;6730;46.248;6.930;2022-11-23T10:51:18;1.40;;;1.30;;
13321;SDS011;6730;46.248;6.930;2022-11-23T10:53:57;1.10;;;1.00;;
13321;SDS011;6730;46.248;6.930;2022-11-23T10:56:26;1.83;;;1.20;;
13321;SDS011;6730;46.248;6.930;2022-11-23T10:58:53;1.30;;;1.00;;
13321;SDS011;6730;46.248;6.930;2022-11-23T11:01:26;2.10;;;1.40;;
13321;SDS011;6730;46.248;6.930;2022-11-23T11:03:54;1.67;;;1.13;;
13321;SDS011;6730;46.248;6.930;2022-11-23T11:06:28;1.38;;;1.00;;
13321;SDS011;6730;46.248;6.930;2022-11-23T11:08:58;1.13;;;0.95;;
13321;SDS011;6730;46.248;6.930;2022-11-23T11:11:30;1.52;;;0.65;;
13321;SDS011;6730;46.248;6.930;2022-11-23T11:14:02;1.20;;;0.98;;
13321;SDS011;6730;46.248;6.930;2022-11-23T11:16:37;2.38;;;1.00;;
13321;SDS011;6730;46.248;6.930;2022-11-23T11:21:55;1.60;;;1.50;;
13321;SDS011;6730;46.248;6.930;2022-11-23T11:26:58;2.00;;;1.20;;
13321;SDS011;6730;46.248;6.930;2022-11-23T11:29:45;2.23;;;1.17;;
13321;SDS011;6730;46.248;6.930;2022-11-23T11:35:18;1.03;;;0.90;;
13321;SDS011;6730;46.248;6.930;2022-11-23T11:37:56;1.17;;;0.98;;
13321;SDS011;6730;46.248;6.930;2022-11-23T11:40:47;1.95;;;1.00;;
13321;SDS011;6730;46.248;6.930;2022-11-23T11:43:16;2.60;;;1.08;;
13321;SDS011;6730;46.248;6.930;2022-11-23T11:45:54;3.88;;;1.40;;
13321;SDS011;6730;46.248;6.930;2022-11-23T11:48:24;1.15;;;1.02;;
13321;SDS011;6730;46.248;6.930;2022-11-23T11:51:02;3.38;;;1.30;;
13321;SDS011;6730;46.248;6.930;2022-11-23T11:56:30;2.10;;;1.45;;
13321;SDS011;6730;46.248;6.930;2022-11-23T11:59:06;2.00;;;1.10;;
13321;SDS011;6730;46.248;6.930;2022-11-23T12:04:42;1.20;;;1.10;;
13321;SDS011;6730;46.248;6.930;2022-11-23T12:07:28;1.45;;;1.00;;
13321;SDS011;6730;46.248;6.930;2022-11-23T12:13:01;1.15;;;0.90;;
13321;SDS011;6730;46.248;6.930;2022-11-23T12:15:27;2.33;;;1.10;;
13321;SDS011;6730;46.248;6.930;2022-11-23T12:25:43;2.42;;;1.10;;
13321;SDS011;6730;46.248;6.930;2022-11-23T12:31:12;1.55;;;1.13;;
13321;SDS011;6730;46.248;6.930;2022-11-23T12:33:57;1.77;;;1.10;;
13321;SDS011;6730;46.248;6.930;2022-11-23T12:42:37;4.45;;;1.30;;
13321;SDS011;6730;46.248;6.930;2022-11-23T12:47:40;3.27;;;1.40;;
13321;SDS011;6730;46.248;6.930;2022-11-23T12:50:27;2.47;;;1.40;;
13321;SDS011;6730;46.248;6.930;2022-11-23T12:55:36;2.13;;;1.20;;
13321;SDS011;6730;46.248;6.930;2022-11-23T13:20:13;1.40;;;1.17;;
13321;SDS011;6730;46.248;6.930;2022-11-23T13:22:40;3.30;;;1.52;;
13321;SDS011;6730;46.248;6.930;2022-11-23T13:25:14;1.85;;;1.50;;
13321;SDS011;6730;46.248;6.930;2022-11-23T13:30:29;1.43;;;1.10;;
13321;SDS011;6730;46.248;6.930;2022-11-23T13:40:39;2.30;;;1.60;;
13321;SDS011;6730;46.248;6.930;2022-11-23T13:45:42;2.20;;;1.60;;
13321;SDS011;6730;46.248;6.930;2022-11-23T13:50:37;1.92;;;1.40;;
13321;SDS011;6730;46.248;6.930;2022-11-23T13:56:13;1.25;;;1.08;;
13321;SDS011;6730;46.248;6.930;2022-11-23T14:04:29;3.28;;;1.42;;
13321;SDS011;6730;46.248;6.930;2022-11-23T14:06:57;5.35;;;1.33;;
13321;SDS011;6730;46.248;6.930;2022-11-23T14:10:00;1.55;;;1.13;;
13321;SDS011;6730;46.248;6.930;2022-11-23T14:12:33;2.55;;;1.80;;
13321;SDS011;6730;46.248;6.930;2022-11-23T14:15:25;2.35;;;1.50;;
13321;SDS011;6730;46.248;6.930;2022-11-23T14:28:55;2.10;;;1.55;;
13321;SDS011;6730;46.248;6.930;2022-11-23T14:34:28;3.20;;;1.67;;
13321;SDS011;6730;46.248;6.930;2022-11-23T14:37:47;1.80;;;1.50;;
13321;SDS011;6730;46.248;6.930;2022-11-23T14:42:51;3.15;;;1.98;;
13321;SDS011;6730;46.248;6.930;2022-11-23T14:45:19;15.00;;;10.80;;
13321;SDS011;6730;46.248;6.930;2022-11-23T14:47:47;6.22;;;4.75;;
13321;SDS011;6730;46.248;6.930;2022-11-23T14:50:23;2.40;;;1.50;;
13321;SDS011;6730;46.248;6.930;2022-11-23T14:52:50;2.08;;;1.50;;
13321;SDS011;6730;46.248;6.930;2022-11-23T14:55:25;1.50;;;1.15;;
13321;SDS011;6730;46.248;6.930;2022-11-23T14:57:54;2.65;;;1.55;;
13321;SDS011;6730;46.248;6.930;2022-11-23T15:00:28;2.70;;;1.43;;
13321;SDS011;6730;46.248;6.930;2022-11-23T15:03:13;1.90;;;1.33;;
13321;SDS011;6730;46.248;6.930;2022-11-23T15:05:51;1.98;;;1.30;;
13321;SDS011;6730;46.248;6.930;2022-11-23T15:08:28;1.30;;;1.20;;
13321;SDS011;6730;46.248;6.930;2022-11-23T15:11:09;2.63;;;1.27;;
13321;SDS011;6730;46.248;6.930;2022-11-23T15:13:46;4.45;;;1.20;;
13321;SDS011;6730;46.248;6.930;2022-11-23T15:16:17;3.00;;;1.67;;
13321;SDS011;6730;46.248;6.930;2022-11-23T15:18:44;2.08;;;1.50;;
13321;SDS011;6730;46.248;6.930;2022-11-23T15:23:40;5.10;;;1.88;;
13321;SDS011;6730;46.248;6.930;2022-11-23T15:26:13;2.95;;;1.90;;
13321;SDS011;6730;46.248;6.930;2022-11-23T15:28:46;2.25;;;1.38;;
13321;SDS011;6730;46.248;6.930;2022-11-23T15:33:46;4.72;;;2.30;;
13321;SDS011;6730;46.248;6.930;2022-11-23T15:36:14;3.10;;;2.00;;
13321;SDS011;6730;46.248;6.930;2022-11-23T15:38:48;2.97;;;2.13;;
13321;SDS011;6730;46.248;6.930;2022-11-23T15:41:16;2.63;;;1.80;;
13321;SDS011;6730;46.248;6.930;2022-11-23T15:43:54;1.93;;;1.60;;
13321;SDS011;6730;46.248;6.930;2022-11-23T15:46:22;2.07;;;1.77;;
13321;SDS011;6730;46.248;6.930;2022-11-23T15:48:51;1.47;;;1.37;;
13321;SDS011;6730;46.248;6.930;2022-11-23T15:53:52;4.97;;;2.00;;
13321;SDS011;6730;46.248;6.930;2022-11-23T15:56:32;2.53;;;1.93;;
13321;SDS011;6730;46.248;6.930;2022-11-23T15:59:03;2.13;;;1.40;;
13321;SDS011;6730;46.248;6.930;2022-11-23T16:01:42;2.23;;;1.60;;
13321;SDS011;6730;46.248;6.930;2022-11-23T16:04:28;2.40;;;2.07;;
13321;SDS011;6730;46.248;6.930;2022-11-23T16:06:54;3.40;;;1.40;;
13321;SDS011;6730;46.248;6.930;2022-11-23T16:09:44;2.47;;;1.40;;
13321;SDS011;6730;46.248;6.930;2022-11-23T16:12:23;3.83;;;1.40;;
13321;SDS011;6730;46.248;6.930;2022-11-23T16:14:54;4.40;;;3.10;;
13321;SDS011;6730;46.248;6.930;2022-11-23T16:19:51;1.67;;;1.37;;
13321;SDS011;6730;46.248;6.930;2022-11-23T16:22:23;2.47;;;1.73;;
13321;SDS011;6730;46.248;6.930;2022-11-23T16:25:06;2.00;;;1.27;;
13321;SDS011;6730;46.248;6.930;2022-11-23T16:27:41;2.40;;;1.97;;
13321;SDS011;6730;46.248;6.930;2022-11-23T16:30:23;2.60;;;1.30;;
13321;SDS011;6730;46.248;6.930;2022-11-23T16:32:50;3.00;;;1.63;;
13321;SDS011;6730;46.248;6.930;2022-11-23T16:35:16;1.90;;;1.70;;
13321;SDS011;6730;46.248;6.930;2022-11-23T16:37:44;1.90;;;1.60;;
13321;SDS011;6730;46.248;6.930;2022-11-23T16:40:10;1.83;;;1.50;;
13321;SDS011;6730;46.248;6.930;2022-11-23T16:42:37;2.83;;;1.57;;
13321;SDS011;6730;46.248;6.930;2022-11-23T16:45:04;1.53;;;1.40;;
13321;SDS011;6730;46.248;6.930;2022-11-23T16:47:30;1.53;;;1.27;;
13321;SDS011;6730;46.248;6.930;2022-11-23T16:49:56;1.87;;;1.40;;
13321;SDS011;6730;46.248;6.930;2022-11-23T16:52:22;4.30;;;1.13;;
13321;SDS011;6730;46.248;6.930;2022-11-23T16:54:48;1.83;;;1.40;;
13321;SDS011;6730;46.248;6.930;2022-11-23T16:57:17;1.40;;;1.30;;
13321;SDS011;6730;46.248;6.930;2022-11-23T16:59:52;1.30;;;1.20;;
13321;SDS011;6730;46.248;6.930;2022-11-23T17:02:18;4.10;;;1.47;;
13321;SDS011;6730;46.248;6.930;2022-11-23T17:04:44;3.03;;;1.90;;
13321;SDS011;6730;46.248;6.930;2022-11-23T17:07:10;3.33;;;1.53;;
13321;SDS011;6730;46.248;6.930;2022-11-23T17:09:36;1.90;;;1.57;;
13321;SDS011;6730;46.248;6.930;2022-11-23T17:12:02;2.80;;;1.83;;
13321;SDS011;6730;46.248;6.930;2022-11-23T17:14:32;2.57;;;1.70;;
13321;SDS011;6730;46.248;6.930;2022-11-23T17:17:00;2.03;;;1.83;;
13321;SDS011;6730;46.248;6.930;2022-11-23T17:19:27;2.00;;;1.77;;
13321;SDS011;6730;46.248;6.930;2022-11-23T17:21:53;1.97;;;1.70;;
13321;SDS011;6730;46.248;6.930;2022-11-23T17:24:19;1.07;;;0.97;;
13321;SDS011;6730;46.248;6.930;2022-11-23T17:26:45;1.37;;;1.10;;
13321;SDS011;6730;46.248;6.930;2022-11-23T17:29:16;2.40;;;1.50;;
13321;SDS011;6730;46.248;6.930;2022-11-23T17:31:47;1.60;;;1.40;;